TimeEST,TemperatureF,Dew PointF,Humidity,Sea Level PressureIn,VisibilityMPH,Wind Direction,Wind SpeedMPH,Gust SpeedMPH,PrecipitationIn,Events,Conditions,WindDirDegrees,DateUTC
12:15 AM,39.2,30.2,70,30.22,10.0,Calm,Calm,-,N/A,,Overcast,0,2012-12-07 05:15:00
12:35 AM,39.2,30.2,70,30.21,10.0,Calm,Calm,-,N/A,,Overcast,0,2012-12-07 05:35:00
12:55 AM,39.2,30.2,70,30.21,10.0,Calm,Calm,-,N/A,,Overcast,0,2012-12-07 05:55:00
1:15 AM,39.2,30.2,70,30.20,10.0,Calm,Calm,-,N/A,,Overcast,0,2012-12-07 06:15:00
1:35 AM,41.0,30.2,65,30.20,10.0,Calm,Calm,-,N/A,,Overcast,0,2012-12-07 06:35:00
1:55 AM,39.2,30.2,70,30.19,10.0,Calm,Calm,-,N/A,,Overcast,0,2012-12-07 06:55:00
2:15 AM,41.0,32.0,70,30.20,10.0,Calm,Calm,-,N/A,,Overcast,0,2012-12-07 07:15:00
2:35 AM,41.0,30.2,65,30.19,10.0,Calm,Calm,-,N/A,,Overcast,0,2012-12-07 07:35:00
2:55 AM,41.0,30.2,65,30.18,10.0,Calm,Calm,-,N/A,,Overcast,0,2012-12-07 07:55:00
3:15 AM,41.0,32.0,70,30.18,10.0,Calm,Calm,-,N/A,,Overcast,0,2012-12-07 08:15:00
3:35 AM,42.8,32.0,66,30.17,10.0,Calm,Calm,-,N/A,,Overcast,0,2012-12-07 08:35:00
3:55 AM,42.8,32.0,66,30.17,10.0,Calm,Calm,-,N/A,,Overcast,0,2012-12-07 08:55:00
4:15 AM,42.8,30.2,61,30.17,10.0,Calm,Calm,-,N/A,,Overcast,0,2012-12-07 09:15:00
4:35 AM,42.8,32.0,66,30.16,10.0,Calm,Calm,-,N/A,,Overcast,0,2012-12-07 09:35:00
4:55 AM,42.8,32.0,66,30.17,10.0,Calm,Calm,-,N/A,,Overcast,0,2012-12-07 09:55:00
5:15 AM,42.8,32.0,66,30.16,10.0,Calm,Calm,-,N/A,,Overcast,0,2012-12-07 10:15:00
5:35 AM,42.8,32.0,66,30.15,10.0,SSE,3.5,-,N/A,,Overcast,160,2012-12-07 10:35:00
5:55 AM,42.8,32.0,66,30.15,10.0,SSE,3.5,-,N/A,,Overcast,160,2012-12-07 10:55:00
6:15 AM,42.8,32.0,66,30.15,10.0,Calm,Calm,-,N/A,,Overcast,0,2012-12-07 11:15:00
6:35 AM,44.6,32.0,61,30.16,10.0,South,3.5,-,N/A,,Overcast,180,2012-12-07 11:35:00
6:55 AM,44.6,33.8,66,30.16,10.0,Calm,Calm,-,N/A,,Overcast,0,2012-12-07 11:55:00
7:15 AM,44.6,33.8,66,30.16,10.0,South,3.5,-,N/A,,Overcast,190,2012-12-07 12:15:00
7:35 AM,44.6,33.8,66,30.16,10.0,South,3.5,-,N/A,,Overcast,180,2012-12-07 12:35:00
7:55 AM,44.6,33.8,66,30.17,10.0,SSW,3.5,-,N/A,,Overcast,200,2012-12-07 12:55:00
8:15 AM,44.6,33.8,66,30.17,10.0,SW,3.5,-,N/A,,Overcast,220,2012-12-07 13:15:00
8:35 AM,44.6,33.8,66,30.17,10.0,South,3.5,-,N/A,,Overcast,190,2012-12-07 13:35:00
8:55 AM,44.6,33.8,66,30.17,10.0,South,3.5,-,N/A,,Overcast,180,2012-12-07 13:55:00
9:15 AM,46.4,33.8,62,30.17,10.0,South,5.8,-,N/A,,Overcast,170,2012-12-07 14:15:00
9:35 AM,46.4,33.8,62,30.16,10.0,SSE,4.6,-,N/A,,Overcast,160,2012-12-07 14:35:00
9:55 AM,46.4,33.8,62,30.16,10.0,South,3.5,-,N/A,,Overcast,170,2012-12-07 14:55:00
10:15 AM,46.4,35.6,66,30.16,10.0,South,4.6,-,N/A,,Overcast,170,2012-12-07 15:15:00
10:35 AM,48.2,33.8,58,30.16,10.0,SSE,4.6,-,N/A,,Overcast,160,2012-12-07 15:35:00
10:55 AM,48.2,33.8,58,30.15,10.0,South,4.6,-,N/A,,Overcast,180,2012-12-07 15:55:00
11:15 AM,48.2,33.8,58,30.14,10.0,South,5.8,-,N/A,,Overcast,180,2012-12-07 16:15:00
11:35 AM,50.0,33.8,54,30.12,10.0,South,4.6,-,N/A,,Overcast,170,2012-12-07 16:35:00
11:55 AM,50.0,35.6,58,30.12,10.0,SSE,3.5,-,N/A,,Overcast,160,2012-12-07 16:55:00
12:15 PM,51.8,35.6,54,30.11,10.0,Calm,Calm,-,N/A,Rain,Light Rain,0,2012-12-07 17:15:00
12:35 PM,51.8,35.6,54,30.09,10.0,SSE,3.5,-,N/A,,Overcast,160,2012-12-07 17:35:00
12:55 PM,51.8,37.4,58,30.08,10.0,South,3.5,-,N/A,Rain,Light Rain,180,2012-12-07 17:55:00
1:15 PM,51.8,37.4,58,30.07,10.0,SSE,3.5,-,N/A,,Overcast,160,2012-12-07 18:15:00
1:35 PM,51.8,39.2,62,30.06,10.0,Calm,Calm,-,N/A,,Overcast,0,2012-12-07 18:35:00
1:55 PM,51.8,39.2,62,30.06,5.0,Calm,Calm,-,0.01,Rain,Rain,0,2012-12-07 18:55:00
2:15 PM,48.2,46.4,93,30.05,10.0,Calm,Calm,-,0.01,,Overcast,0,2012-12-07 19:15:00
2:35 PM,50.0,41.0,71,30.05,10.0,Calm,Calm,-,0.01,,Overcast,0,2012-12-07 19:35:00
2:55 PM,51.8,42.8,71,30.04,10.0,Calm,Calm,-,N/A,,Overcast,0,2012-12-07 19:55:00
3:15 PM,51.8,42.8,71,30.04,10.0,Calm,Calm,-,N/A,,Overcast,0,2012-12-07 20:15:00
3:35 PM,51.8,42.8,71,30.03,10.0,Calm,Calm,-,N/A,,Overcast,0,2012-12-07 20:35:00
3:55 PM,50.0,42.8,76,30.03,7.0,Calm,Calm,-,N/A,Rain,Light Rain,0,2012-12-07 20:55:00
4:15 PM,50.0,46.4,87,30.04,10.0,Calm,Calm,-,0.01,Rain,Light Rain,0,2012-12-07 21:15:00
4:35 PM,48.2,46.4,93,30.03,10.0,Calm,Calm,-,0.01,,Overcast,0,2012-12-07 21:35:00
4:55 PM,48.2,46.4,93,30.04,7.0,Calm,Calm,-,0.01,Rain,Light Rain,0,2012-12-07 21:55:00
5:15 PM,48.2,46.4,93,30.04,7.0,Calm,Calm,-,0.04,Rain,Rain,0,2012-12-07 22:15:00
5:35 PM,48.2,46.4,93,30.03,10.0,Calm,Calm,-,0.10,Rain,Rain,0,2012-12-07 22:35:00
5:55 PM,48.2,46.4,93,30.03,5.0,Calm,Calm,-,0.02,Rain,Rain,0,2012-12-07 22:55:00
6:15 PM,48.2,46.4,93,30.04,5.0,Calm,Calm,-,0.08,Rain,Heavy Rain,0,2012-12-07 23:15:00
6:35 PM,48.2,46.4,93,30.04,1.5,SSE,3.5,-,0.27,,Overcast,150,2012-12-07 23:35:00
6:55 PM,48.2,46.4,93,30.03,3.0,SE,4.6,-,0.04,Rain,Heavy Rain,130,2012-12-07 23:55:00
7:15 PM,48.2,46.4,93,30.02,4.0,Calm,Calm,-,0.07,Rain,Rain,0,2012-12-08 00:15:00
7:35 PM,48.2,46.4,93,30.02,5.0,South,4.6,-,0.14,Rain,Heavy Rain,180,2012-12-08 00:35:00
8:15 PM,48.2,48.2,100,30.03,4.0,Calm,Calm,-,0.04,,Heavy Drizzle,0,2012-12-08 01:15:00
8:35 PM,48.2,48.2,100,30.02,4.0,Calm,Calm,-,0.05,,Overcast,0,2012-12-08 01:35:00
8:55 PM,48.2,46.4,93,30.01,5.0,Calm,Calm,-,N/A,,Overcast,0,2012-12-08 01:55:00
9:15 PM,48.2,46.4,93,30.00,4.0,Calm,Calm,-,N/A,,Overcast,0,2012-12-08 02:15:00
9:35 PM,48.2,48.2,100,30.00,4.0,Calm,Calm,-,N/A,,Overcast,0,2012-12-08 02:35:00
9:55 PM,48.2,46.4,93,30.00,5.0,Calm,Calm,-,N/A,,Overcast,0,2012-12-08 02:55:00
10:15 PM,48.2,46.4,93,30.00,4.0,WSW,3.5,-,N/A,,Overcast,250,2012-12-08 03:15:00
10:35 PM,48.2,46.4,93,30.00,4.0,Calm,Calm,-,N/A,,Overcast,0,2012-12-08 03:35:00
10:55 PM,48.2,46.4,93,29.99,3.0,Calm,Calm,-,N/A,,Overcast,0,2012-12-08 03:55:00
11:15 PM,48.2,46.4,93,29.99,3.0,Calm,Calm,-,N/A,,Overcast,0,2012-12-08 04:15:00
11:35 PM,48.2,46.4,93,29.99,3.0,Calm,Calm,-,N/A,,Overcast,0,2012-12-08 04:35:00
11:55 PM,48.2,46.4,93,29.99,2.0,Calm,Calm,-,N/A,,Overcast,0,2012-12-08 04:55:00